sensor_id;sensor_type;location;lat;lon;timestamp;temperature;humidity
63047;DHT22;62025;39.238;9.126;2024-01-15T00:02:24;14.90;79.80
63047;DHT22;62025;39.238;9.126;2024-01-15T00:04:50;14.90;79.80
63047;DHT22;62025;39.238;9.126;2024-01-15T00:07:16;14.90;79.70
63047;DHT22;62025;39.238;9.126;2024-01-15T00:09:42;14.90;79.90
63047;DHT22;62025;39.238;9.126;2024-01-15T00:12:08;14.80;80.00
63047;DHT22;62025;39.238;9.126;2024-01-15T00:14:34;14.90;80.10
63047;DHT22;62025;39.238;9.126;2024-01-15T00:17:00;14.80;80.20
63047;DHT22;62025;39.238;9.126;2024-01-15T00:19:26;14.80;80.30
63047;DHT22;62025;39.238;9.126;2024-01-15T00:21:52;14.80;80.60
63047;DHT22;62025;39.238;9.126;2024-01-15T00:24:18;14.80;80.70
63047;DHT22;62025;39.238;9.126;2024-01-15T00:26:45;14.80;80.80
63047;DHT22;62025;39.238;9.126;2024-01-15T00:29:11;14.70;80.90
63047;DHT22;62025;39.238;9.126;2024-01-15T00:31:37;14.80;80.80
63047;DHT22;62025;39.238;9.126;2024-01-15T00:34:03;14.70;80.90
63047;DHT22;62025;39.238;9.126;2024-01-15T00:36:28;14.80;81.00
63047;DHT22;62025;39.238;9.126;2024-01-15T00:38:54;14.70;81.00
63047;DHT22;62025;39.238;9.126;2024-01-15T00:41:20;14.70;81.00
63047;DHT22;62025;39.238;9.126;2024-01-15T00:43:46;14.70;81.00
63047;DHT22;62025;39.238;9.126;2024-01-15T00:46:15;14.70;81.00
63047;DHT22;62025;39.238;9.126;2024-01-15T00:48:41;14.70;81.10
63047;DHT22;62025;39.238;9.126;2024-01-15T00:51:07;14.60;81.20
63047;DHT22;62025;39.238;9.126;2024-01-15T00:53:33;14.70;81.20
63047;DHT22;62025;39.238;9.126;2024-01-15T00:55:59;14.70;81.20
63047;DHT22;62025;39.238;9.126;2024-01-15T00:58:26;14.70;81.00
63047;DHT22;62025;39.238;9.126;2024-01-15T01:00:52;14.60;80.60
63047;DHT22;62025;39.238;9.126;2024-01-15T01:03:18;14.60;80.60
63047;DHT22;62025;39.238;9.126;2024-01-15T01:05:44;14.50;80.50
63047;DHT22;62025;39.238;9.126;2024-01-15T01:08:10;14.60;80.30
63047;DHT22;62025;39.238;9.126;2024-01-15T01:10:37;14.60;80.20
63047;DHT22;62025;39.238;9.126;2024-01-15T01:13:03;14.60;80.20
63047;DHT22;62025;39.238;9.126;2024-01-15T01:15:29;14.60;80.10
63047;DHT22;62025;39.238;9.126;2024-01-15T01:17:55;14.60;80.10
63047;DHT22;62025;39.238;9.126;2024-01-15T01:20:21;14.60;80.00
63047;DHT22;62025;39.238;9.126;2024-01-15T01:22:47;14.60;79.90
63047;DHT22;62025;39.238;9.126;2024-01-15T01:25:13;14.60;80.00
63047;DHT22;62025;39.238;9.126;2024-01-15T01:27:39;14.60;80.10
63047;DHT22;62025;39.238;9.126;2024-01-15T01:30:05;14.60;80.00
63047;DHT22;62025;39.238;9.126;2024-01-15T01:32:32;14.50;79.90
63047;DHT22;62025;39.238;9.126;2024-01-15T01:34:58;14.50;79.80
63047;DHT22;62025;39.238;9.126;2024-01-15T01:37:24;14.50;79.70
63047;DHT22;62025;39.238;9.126;2024-01-15T01:39:50;14.50;79.50
63047;DHT22;62025;39.238;9.126;2024-01-15T01:42:16;14.50;79.30
63047;DHT22;62025;39.238;9.126;2024-01-15T01:44:42;14.50;79.20
63047;DHT22;62025;39.238;9.126;2024-01-15T01:47:08;14.40;79.20
63047;DHT22;62025;39.238;9.126;2024-01-15T01:49:34;14.40;79.20
63047;DHT22;62025;39.238;9.126;2024-01-15T01:52:05;14.50;79.30
63047;DHT22;62025;39.238;9.126;2024-01-15T01:54:34;14.40;79.20
63047;DHT22;62025;39.238;9.126;2024-01-15T01:57:02;14.40;79.20
63047;DHT22;62025;39.238;9.126;2024-01-15T01:59:30;14.40;79.10
63047;DHT22;62025;39.238;9.126;2024-01-15T02:01:56;14.40;79.20
63047;DHT22;62025;39.238;9.126;2024-01-15T02:04:26;14.30;79.10
63047;DHT22;62025;39.238;9.126;2024-01-15T02:06:52;14.40;79.10
63047;DHT22;62025;39.238;9.126;2024-01-15T02:09:18;14.30;79.00
63047;DHT22;62025;39.238;9.126;2024-01-15T02:11:48;14.30;78.90
63047;DHT22;62025;39.238;9.126;2024-01-15T02:14:14;14.30;78.80
63047;DHT22;62025;39.238;9.126;2024-01-15T02:16:41;14.30;78.80
63047;DHT22;62025;39.238;9.126;2024-01-15T02:19:07;14.30;78.80
63047;DHT22;62025;39.238;9.126;2024-01-15T02:21:33;14.30;78.60
63047;DHT22;62025;39.238;9.126;2024-01-15T02:23:59;14.20;78.60
63047;DHT22;62025;39.238;9.126;2024-01-15T02:26:26;14.30;78.50
63047;DHT22;62025;39.238;9.126;2024-01-15T02:28:52;14.30;78.20
63047;DHT22;62025;39.238;9.126;2024-01-15T02:31:18;14.30;78.20
63047;DHT22;62025;39.238;9.126;2024-01-15T02:33:44;14.20;78.40
63047;DHT22;62025;39.238;9.126;2024-01-15T02:36:11;14.20;78.20
63047;DHT22;62025;39.238;9.126;2024-01-15T02:38:37;14.30;78.20
63047;DHT22;62025;39.238;9.126;2024-01-15T02:41:04;14.30;78.00
63047;DHT22;62025;39.238;9.126;2024-01-15T02:43:30;14.20;78.00
63047;DHT22;62025;39.238;9.126;2024-01-15T02:45:56;14.20;78.10
63047;DHT22;62025;39.238;9.126;2024-01-15T02:48:22;14.30;78.10
63047;DHT22;62025;39.238;9.126;2024-01-15T02:50:48;14.20;78.10
63047;DHT22;62025;39.238;9.126;2024-01-15T02:53:14;14.20;78.10
63047;DHT22;62025;39.238;9.126;2024-01-15T02:55:40;14.20;78.20
63047;DHT22;62025;39.238;9.126;2024-01-15T02:58:06;14.20;78.10
63047;DHT22;62025;39.238;9.126;2024-01-15T03:00:32;14.20;78.10
63047;DHT22;62025;39.238;9.126;2024-01-15T03:02:58;14.20;78.10
63047;DHT22;62025;39.238;9.126;2024-01-15T03:05:24;14.10;78.10
63047;DHT22;62025;39.238;9.126;2024-01-15T03:07:50;14.10;78.20
63047;DHT22;62025;39.238;9.126;2024-01-15T03:10:17;14.10;78.30
63047;DHT22;62025;39.238;9.126;2024-01-15T03:12:43;14.10;78.30
63047;DHT22;62025;39.238;9.126;2024-01-15T03:15:09;14.10;78.30
63047;DHT22;62025;39.238;9.126;2024-01-15T03:17:35;14.00;78.50
63047;DHT22;62025;39.238;9.126;2024-01-15T03:20:01;14.10;78.40
63047;DHT22;62025;39.238;9.126;2024-01-15T03:22:28;14.00;78.30
63047;DHT22;62025;39.238;9.126;2024-01-15T03:24:54;14.00;78.40
63047;DHT22;62025;39.238;9.126;2024-01-15T03:27:20;14.00;78.50
63047;DHT22;62025;39.238;9.126;2024-01-15T03:29:46;14.00;78.40
63047;DHT22;62025;39.238;9.126;2024-01-15T03:32:13;14.00;78.50
63047;DHT22;62025;39.238;9.126;2024-01-15T03:34:39;14.00;78.40
63047;DHT22;62025;39.238;9.126;2024-01-15T03:37:04;14.00;78.30
63047;DHT22;62025;39.238;9.126;2024-01-15T03:39:31;14.00;78.20
63047;DHT22;62025;39.238;9.126;2024-01-15T03:41:57;14.00;78.20
63047;DHT22;62025;39.238;9.126;2024-01-15T03:44:23;14.00;78.20
63047;DHT22;62025;39.238;9.126;2024-01-15T03:46:50;13.90;78.10
63047;DHT22;62025;39.238;9.126;2024-01-15T03:49:16;13.90;78.10
63047;DHT22;62025;39.238;9.126;2024-01-15T03:51:42;13.90;78.20
63047;DHT22;62025;39.238;9.126;2024-01-15T03:54:08;13.90;77.90
63047;DHT22;62025;39.238;9.126;2024-01-15T03:56:34;13.90;78.00
63047;DHT22;62025;39.238;9.126;2024-01-15T03:59:01;13.90;77.90
63047;DHT22;62025;39.238;9.126;2024-01-15T04:01:27;13.90;77.90
63047;DHT22;62025;39.238;9.126;2024-01-15T04:03:53;13.90;77.80
63047;DHT22;62025;39.238;9.126;2024-01-15T04:06:19;13.90;77.80
63047;DHT22;62025;39.238;9.126;2024-01-15T04:08:45;13.90;77.90
63047;DHT22;62025;39.238;9.126;2024-01-15T04:11:10;13.90;78.10
63047;DHT22;62025;39.238;9.126;2024-01-15T04:13:36;13.90;78.00
63047;DHT22;62025;39.238;9.126;2024-01-15T04:16:03;13.90;78.00
63047;DHT22;62025;39.238;9.126;2024-01-15T04:18:29;13.90;78.00
63047;DHT22;62025;39.238;9.126;2024-01-15T04:20:55;13.80;78.00
63047;DHT22;62025;39.238;9.126;2024-01-15T04:23:21;13.90;77.90
63047;DHT22;62025;39.238;9.126;2024-01-15T04:25:47;13.90;78.00
63047;DHT22;62025;39.238;9.126;2024-01-15T04:28:13;13.90;78.00
63047;DHT22;62025;39.238;9.126;2024-01-15T04:30:39;13.90;78.10
63047;DHT22;62025;39.238;9.126;2024-01-15T04:33:05;13.90;78.10
63047;DHT22;62025;39.238;9.126;2024-01-15T04:35:31;13.90;78.10
63047;DHT22;62025;39.238;9.126;2024-01-15T04:37:58;13.80;78.20
63047;DHT22;62025;39.238;9.126;2024-01-15T04:40:24;13.80;78.20
63047;DHT22;62025;39.238;9.126;2024-01-15T04:42:54;13.80;78.30
63047;DHT22;62025;39.238;9.126;2024-01-15T04:45:20;13.80;78.20
63047;DHT22;62025;39.238;9.126;2024-01-15T04:47:48;13.80;78.30
63047;DHT22;62025;39.238;9.126;2024-01-15T04:50:15;13.80;78.20
63047;DHT22;62025;39.238;9.126;2024-01-15T04:52:41;13.80;78.10
63047;DHT22;62025;39.238;9.126;2024-01-15T04:55:07;13.80;78.20
63047;DHT22;62025;39.238;9.126;2024-01-15T04:57:33;13.80;78.00
63047;DHT22;62025;39.238;9.126;2024-01-15T04:59:59;13.80;77.90
63047;DHT22;62025;39.238;9.126;2024-01-15T05:02:25;13.80;78.00
63047;DHT22;62025;39.238;9.126;2024-01-15T05:04:51;13.80;77.80
63047;DHT22;62025;39.238;9.126;2024-01-15T05:07:17;13.80;77.80
63047;DHT22;62025;39.238;9.126;2024-01-15T05:09:43;13.80;77.80
63047;DHT22;62025;39.238;9.126;2024-01-15T05:12:09;13.80;78.00
63047;DHT22;62025;39.238;9.126;2024-01-15T05:14:35;13.80;77.90
63047;DHT22;62025;39.238;9.126;2024-01-15T05:17:01;13.80;77.80
63047;DHT22;62025;39.238;9.126;2024-01-15T05:19:27;13.80;78.00
63047;DHT22;62025;39.238;9.126;2024-01-15T05:21:53;13.70;78.10
63047;DHT22;62025;39.238;9.126;2024-01-15T05:24:18;13.70;78.20
63047;DHT22;62025;39.238;9.126;2024-01-15T05:26:44;13.70;78.20
63047;DHT22;62025;39.238;9.126;2024-01-15T05:29:10;13.70;78.40
63047;DHT22;62025;39.238;9.126;2024-01-15T05:31:36;13.70;78.40
63047;DHT22;62025;39.238;9.126;2024-01-15T05:34:02;13.70;78.50
63047;DHT22;62025;39.238;9.126;2024-01-15T05:36:28;13.70;78.60
63047;DHT22;62025;39.238;9.126;2024-01-15T05:38:54;13.80;78.50
63047;DHT22;62025;39.238;9.126;2024-01-15T05:41:20;13.70;78.70
63047;DHT22;62025;39.238;9.126;2024-01-15T05:43:46;13.70;78.90
63047;DHT22;62025;39.238;9.126;2024-01-15T05:46:12;13.80;79.00
63047;DHT22;62025;39.238;9.126;2024-01-15T05:48:39;13.80;79.20
63047;DHT22;62025;39.238;9.126;2024-01-15T05:51:05;13.80;79.40
63047;DHT22;62025;39.238;9.126;2024-01-15T05:53:31;13.80;79.40
63047;DHT22;62025;39.238;9.126;2024-01-15T05:55:57;13.80;79.60
63047;DHT22;62025;39.238;9.126;2024-01-15T05:58:23;13.80;79.60
63047;DHT22;62025;39.238;9.126;2024-01-15T06:00:49;13.80;79.60
63047;DHT22;62025;39.238;9.126;2024-01-15T06:03:15;13.80;79.60
63047;DHT22;62025;39.238;9.126;2024-01-15T06:05:41;13.80;79.70
63047;DHT22;62025;39.238;9.126;2024-01-15T06:08:07;13.80;79.70
63047;DHT22;62025;39.238;9.126;2024-01-15T06:10:33;13.80;79.80
63047;DHT22;62025;39.238;9.126;2024-01-15T06:12:59;13.80;79.60
63047;DHT22;62025;39.238;9.126;2024-01-15T06:15:25;13.80;79.50
63047;DHT22;62025;39.238;9.126;2024-01-15T06:17:51;13.80;79.30
63047;DHT22;62025;39.238;9.126;2024-01-15T06:20:17;13.80;79.00
63047;DHT22;62025;39.238;9.126;2024-01-15T06:22:43;13.80;78.90
63047;DHT22;62025;39.238;9.126;2024-01-15T06:25:09;13.70;78.90
63047;DHT22;62025;39.238;9.126;2024-01-15T06:27:35;13.70;78.80
63047;DHT22;62025;39.238;9.126;2024-01-15T06:30:01;13.70;78.70
63047;DHT22;62025;39.238;9.126;2024-01-15T06:32:28;13.70;78.80
63047;DHT22;62025;39.238;9.126;2024-01-15T06:34:54;13.70;78.80
63047;DHT22;62025;39.238;9.126;2024-01-15T06:37:19;13.70;78.70
63047;DHT22;62025;39.238;9.126;2024-01-15T06:39:46;13.70;78.70
63047;DHT22;62025;39.238;9.126;2024-01-15T06:42:11;13.70;78.70
63047;DHT22;62025;39.238;9.126;2024-01-15T06:44:38;13.70;78.70
63047;DHT22;62025;39.238;9.126;2024-01-15T06:47:05;13.70;78.50
63047;DHT22;62025;39.238;9.126;2024-01-15T06:49:31;13.60;78.50
63047;DHT22;62025;39.238;9.126;2024-01-15T06:51:57;13.70;78.50
63047;DHT22;62025;39.238;9.126;2024-01-15T06:54:23;13.70;78.40
63047;DHT22;62025;39.238;9.126;2024-01-15T06:56:49;13.60;78.40
63047;DHT22;62025;39.238;9.126;2024-01-15T06:59:16;13.60;78.50
63047;DHT22;62025;39.238;9.126;2024-01-15T07:01:42;13.70;78.60
63047;DHT22;62025;39.238;9.126;2024-01-15T07:04:08;13.60;78.50
63047;DHT22;62025;39.238;9.126;2024-01-15T07:06:33;13.70;78.60
63047;DHT22;62025;39.238;9.126;2024-01-15T07:08:59;13.70;78.60
63047;DHT22;62025;39.238;9.126;2024-01-15T07:11:25;13.70;78.60
63047;DHT22;62025;39.238;9.126;2024-01-15T07:13:51;13.60;78.50
63047;DHT22;62025;39.238;9.126;2024-01-15T07:16:17;13.70;78.40
63047;DHT22;62025;39.238;9.126;2024-01-15T07:18:43;13.70;78.50
63047;DHT22;62025;39.238;9.126;2024-01-15T07:21:10;13.60;78.50
63047;DHT22;62025;39.238;9.126;2024-01-15T07:23:36;13.70;78.60
63047;DHT22;62025;39.238;9.126;2024-01-15T07:26:02;13.60;78.60
63047;DHT22;62025;39.238;9.126;2024-01-15T07:28:31;13.60;78.80
63047;DHT22;62025;39.238;9.126;2024-01-15T07:30:57;13.70;78.80
63047;DHT22;62025;39.238;9.126;2024-01-15T07:33:23;13.60;78.90
63047;DHT22;62025;39.238;9.126;2024-01-15T07:35:49;13.70;79.10
63047;DHT22;62025;39.238;9.126;2024-01-15T07:38:15;13.80;78.90
63047;DHT22;62025;39.238;9.126;2024-01-15T07:40:41;13.80;78.90
63047;DHT22;62025;39.238;9.126;2024-01-15T07:43:07;13.80;78.90
63047;DHT22;62025;39.238;9.126;2024-01-15T07:45:33;13.80;79.00
63047;DHT22;62025;39.238;9.126;2024-01-15T07:47:59;13.80;79.20
63047;DHT22;62025;39.238;9.126;2024-01-15T07:50:25;13.80;79.50
63047;DHT22;62025;39.238;9.126;2024-01-15T07:52:51;13.80;79.90
63047;DHT22;62025;39.238;9.126;2024-01-15T07:55:18;13.90;80.10
63047;DHT22;62025;39.238;9.126;2024-01-15T07:57:44;13.90;80.40
63047;DHT22;62025;39.238;9.126;2024-01-15T08:00:10;13.90;80.80
63047;DHT22;62025;39.238;9.126;2024-01-15T08:02:36;14.00;81.00
63047;DHT22;62025;39.238;9.126;2024-01-15T08:05:03;14.00;81.10
63047;DHT22;62025;39.238;9.126;2024-01-15T08:07:29;14.10;81.20
63047;DHT22;62025;39.238;9.126;2024-01-15T08:09:55;14.00;81.10
63047;DHT22;62025;39.238;9.126;2024-01-15T08:12:20;14.00;80.80
63047;DHT22;62025;39.238;9.126;2024-01-15T08:14:48;13.90;80.60
63047;DHT22;62025;39.238;9.126;2024-01-15T08:17:14;13.90;80.50
63047;DHT22;62025;39.238;9.126;2024-01-15T08:19:42;13.80;80.20
63047;DHT22;62025;39.238;9.126;2024-01-15T08:22:08;13.80;80.10
63047;DHT22;62025;39.238;9.126;2024-01-15T08:24:35;13.90;80.00
63047;DHT22;62025;39.238;9.126;2024-01-15T08:27:01;13.90;79.80
63047;DHT22;62025;39.238;9.126;2024-01-15T08:29:27;13.80;79.70
63047;DHT22;62025;39.238;9.126;2024-01-15T08:31:54;13.80;79.60
63047;DHT22;62025;39.238;9.126;2024-01-15T08:34:20;13.80;79.80
63047;DHT22;62025;39.238;9.126;2024-01-15T08:36:45;13.80;79.80
63047;DHT22;62025;39.238;9.126;2024-01-15T08:39:12;13.80;79.90
63047;DHT22;62025;39.238;9.126;2024-01-15T08:41:38;13.90;79.90
63047;DHT22;62025;39.238;9.126;2024-01-15T08:44:04;13.90;79.70
63047;DHT22;62025;39.238;9.126;2024-01-15T08:46:30;14.00;79.50
63047;DHT22;62025;39.238;9.126;2024-01-15T08:48:56;14.70;78.70
63047;DHT22;62025;39.238;9.126;2024-01-15T08:51:22;14.80;77.70
63047;DHT22;62025;39.238;9.126;2024-01-15T08:53:48;15.50;76.20
63047;DHT22;62025;39.238;9.126;2024-01-15T08:56:14;16.30;74.00
63047;DHT22;62025;39.238;9.126;2024-01-15T08:58:40;16.90;71.90
63047;DHT22;62025;39.238;9.126;2024-01-15T09:01:06;17.70;69.50
63047;DHT22;62025;39.238;9.126;2024-01-15T09:03:32;18.20;67.40
63047;DHT22;62025;39.238;9.126;2024-01-15T09:05:59;18.80;65.70
63047;DHT22;62025;39.238;9.126;2024-01-15T09:08:25;19.10;64.50
63047;DHT22;62025;39.238;9.126;2024-01-15T09:10:53;19.40;63.30
63047;DHT22;62025;39.238;9.126;2024-01-15T09:13:19;19.80;62.30
63047;DHT22;62025;39.238;9.126;2024-01-15T09:15:45;20.00;61.40
63047;DHT22;62025;39.238;9.126;2024-01-15T09:18:11;20.20;61.00
63047;DHT22;62025;39.238;9.126;2024-01-15T09:20:37;20.40;60.40
63047;DHT22;62025;39.238;9.126;2024-01-15T09:23:04;20.70;60.00
63047;DHT22;62025;39.238;9.126;2024-01-15T09:25:30;20.70;60.00
63047;DHT22;62025;39.238;9.126;2024-01-15T09:27:56;20.80;59.80
63047;DHT22;62025;39.238;9.126;2024-01-15T09:30:22;21.00;59.40
63047;DHT22;62025;39.238;9.126;2024-01-15T09:32:48;21.20;58.70
63047;DHT22;62025;39.238;9.126;2024-01-15T09:35:14;21.40;58.10
63047;DHT22;62025;39.238;9.126;2024-01-15T09:37:41;21.40;57.90
63047;DHT22;62025;39.238;9.126;2024-01-15T09:40:08;21.30;57.90
63047;DHT22;62025;39.238;9.126;2024-01-15T09:42:40;21.50;57.30
63047;DHT22;62025;39.238;9.126;2024-01-15T09:45:08;21.30;57.70
63047;DHT22;62025;39.238;9.126;2024-01-15T09:47:38;20.90;58.30
63047;DHT22;62025;39.238;9.126;2024-01-15T09:50:04;20.30;60.40
63047;DHT22;62025;39.238;9.126;2024-01-15T09:52:31;20.70;60.30
63047;DHT22;62025;39.238;9.126;2024-01-15T09:54:58;21.30;58.30
63047;DHT22;62025;39.238;9.126;2024-01-15T09:57:26;21.40;57.70
63047;DHT22;62025;39.238;9.126;2024-01-15T09:59:52;21.40;56.80
63047;DHT22;62025;39.238;9.126;2024-01-15T10:02:20;20.70;58.20
63047;DHT22;62025;39.238;9.126;2024-01-15T10:04:46;20.30;59.00
63047;DHT22;62025;39.238;9.126;2024-01-15T10:07:16;20.40;58.70
63047;DHT22;62025;39.238;9.126;2024-01-15T10:09:45;20.50;57.60
63047;DHT22;62025;39.238;9.126;2024-01-15T10:12:12;20.80;57.30
63047;DHT22;62025;39.238;9.126;2024-01-15T10:14:38;21.40;55.40
63047;DHT22;62025;39.238;9.126;2024-01-15T10:17:16;21.80;54.10
63047;DHT22;62025;39.238;9.126;2024-01-15T10:19:46;21.80;53.80
63047;DHT22;62025;39.238;9.126;2024-01-15T10:22:14;22.00;53.20
63047;DHT22;62025;39.238;9.126;2024-01-15T10:24:41;21.90;53.40
63047;DHT22;62025;39.238;9.126;2024-01-15T10:27:08;21.70;53.20
63047;DHT22;62025;39.238;9.126;2024-01-15T10:29:35;21.10;54.40
63047;DHT22;62025;39.238;9.126;2024-01-15T10:32:03;21.10;54.40
63047;DHT22;62025;39.238;9.126;2024-01-15T10:34:32;21.30;54.10
63047;DHT22;62025;39.238;9.126;2024-01-15T10:36:58;20.60;55.50
63047;DHT22;62025;39.238;9.126;2024-01-15T10:39:24;20.10;56.90
63047;DHT22;62025;39.238;9.126;2024-01-15T10:41:51;19.60;57.40
63047;DHT22;62025;39.238;9.126;2024-01-15T10:44:17;19.20;57.90
63047;DHT22;62025;39.238;9.126;2024-01-15T10:46:45;19.00;58.50
63047;DHT22;62025;39.238;9.126;2024-01-15T10:49:12;18.80;58.50
63047;DHT22;62025;39.238;9.126;2024-01-15T10:51:38;18.50;59.00
63047;DHT22;62025;39.238;9.126;2024-01-15T10:54:05;18.30;59.20
63047;DHT22;62025;39.238;9.126;2024-01-15T10:56:37;18.20;59.50
63047;DHT22;62025;39.238;9.126;2024-01-15T10:59:04;18.10;59.70
63047;DHT22;62025;39.238;9.126;2024-01-15T11:01:30;18.10;60.00
63047;DHT22;62025;39.238;9.126;2024-01-15T11:03:57;17.90;60.10
63047;DHT22;62025;39.238;9.126;2024-01-15T11:06:24;17.90;59.80
63047;DHT22;62025;39.238;9.126;2024-01-15T11:08:52;17.70;59.80
63047;DHT22;62025;39.238;9.126;2024-01-15T11:11:19;17.80;59.60
63047;DHT22;62025;39.238;9.126;2024-01-15T11:13:47;17.90;59.30
63047;DHT22;62025;39.238;9.126;2024-01-15T11:16:16;18.10;59.10
63047;DHT22;62025;39.238;9.126;2024-01-15T11:21:25;18.20;58.20
63047;DHT22;62025;39.238;9.126;2024-01-15T11:23:56;18.30;57.80
63047;DHT22;62025;39.238;9.126;2024-01-15T11:26:37;18.30;57.10
63047;DHT22;62025;39.238;9.126;2024-01-15T11:34:20;18.10;57.10
63047;DHT22;62025;39.238;9.126;2024-01-15T11:44:27;18.10;58.30
63047;DHT22;62025;39.238;9.126;2024-01-15T11:47:00;18.00;58.10
63047;DHT22;62025;39.238;9.126;2024-01-15T11:52:47;17.80;58.40
63047;DHT22;62025;39.238;9.126;2024-01-15T11:55:33;17.70;58.40
63047;DHT22;62025;39.238;9.126;2024-01-15T11:58:03;17.70;58.70
63047;DHT22;62025;39.238;9.126;2024-01-15T12:00:34;17.60;58.30
63047;DHT22;62025;39.238;9.126;2024-01-15T12:03:00;17.60;58.00
63047;DHT22;62025;39.238;9.126;2024-01-15T12:05:27;17.50;57.50
63047;DHT22;62025;39.238;9.126;2024-01-15T12:07:54;17.40;56.60
63047;DHT22;62025;39.238;9.126;2024-01-15T12:10:20;17.40;56.30
63047;DHT22;62025;39.238;9.126;2024-01-15T12:15:38;17.40;57.40
63047;DHT22;62025;39.238;9.126;2024-01-15T12:18:09;17.30;57.70
63047;DHT22;62025;39.238;9.126;2024-01-15T12:20:37;17.40;58.10
63047;DHT22;62025;39.238;9.126;2024-01-15T12:23:03;17.40;58.50
63047;DHT22;62025;39.238;9.126;2024-01-15T12:25:30;17.40;58.30
63047;DHT22;62025;39.238;9.126;2024-01-15T12:27:58;17.30;58.80
63047;DHT22;62025;39.238;9.126;2024-01-15T12:30:26;17.30;59.00
63047;DHT22;62025;39.238;9.126;2024-01-15T12:32:53;17.30;59.10
63047;DHT22;62025;39.238;9.126;2024-01-15T12:35:19;17.30;59.30
63047;DHT22;62025;39.238;9.126;2024-01-15T12:37:45;17.30;59.50
63047;DHT22;62025;39.238;9.126;2024-01-15T12:40:18;17.30;59.70
63047;DHT22;62025;39.238;9.126;2024-01-15T12:42:45;17.40;59.80
63047;DHT22;62025;39.238;9.126;2024-01-15T12:45:12;17.40;59.90
63047;DHT22;62025;39.238;9.126;2024-01-15T12:47:39;17.40;60.00
63047;DHT22;62025;39.238;9.126;2024-01-15T12:50:11;17.40;60.20
63047;DHT22;62025;39.238;9.126;2024-01-15T12:52:40;17.30;60.30
63047;DHT22;62025;39.238;9.126;2024-01-15T12:55:09;17.30;59.60
63047;DHT22;62025;39.238;9.126;2024-01-15T12:57:36;17.30;59.60
63047;DHT22;62025;39.238;9.126;2024-01-15T13:00:03;17.30;59.60
63047;DHT22;62025;39.238;9.126;2024-01-15T13:02:37;17.30;59.50
63047;DHT22;62025;39.238;9.126;2024-01-15T13:05:04;17.30;59.50
63047;DHT22;62025;39.238;9.126;2024-01-15T13:07:32;17.30;59.30
63047;DHT22;62025;39.238;9.126;2024-01-15T13:09:58;17.30;59.00
63047;DHT22;62025;39.238;9.126;2024-01-15T13:12:25;17.20;59.20
63047;DHT22;62025;39.238;9.126;2024-01-15T13:14:51;17.20;59.10
63047;DHT22;62025;39.238;9.126;2024-01-15T13:17:17;17.20;58.90
63047;DHT22;62025;39.238;9.126;2024-01-15T13:19:43;17.10;58.50
63047;DHT22;62025;39.238;9.126;2024-01-15T13:22:09;17.10;58.30
63047;DHT22;62025;39.238;9.126;2024-01-15T13:24:38;17.10;57.90
63047;DHT22;62025;39.238;9.126;2024-01-15T13:27:05;17.10;57.50
63047;DHT22;62025;39.238;9.126;2024-01-15T13:29:32;17.10;57.10
63047;DHT22;62025;39.238;9.126;2024-01-15T13:31:59;17.00;56.80
63047;DHT22;62025;39.238;9.126;2024-01-15T13:34:25;17.00;56.90
63047;DHT22;62025;39.238;9.126;2024-01-15T13:36:51;17.00;56.80
63047;DHT22;62025;39.238;9.126;2024-01-15T13:39:19;17.00;56.50
63047;DHT22;62025;39.238;9.126;2024-01-15T13:41:49;17.00;56.90
63047;DHT22;62025;39.238;9.126;2024-01-15T13:44:15;17.00;57.00
63047;DHT22;62025;39.238;9.126;2024-01-15T13:46:41;17.00;57.30
63047;DHT22;62025;39.238;9.126;2024-01-15T13:49:07;17.00;57.30
63047;DHT22;62025;39.238;9.126;2024-01-15T13:51:36;17.00;57.80
63047;DHT22;62025;39.238;9.126;2024-01-15T13:54:02;17.10;57.60
63047;DHT22;62025;39.238;9.126;2024-01-15T13:56:31;17.00;56.80
63047;DHT22;62025;39.238;9.126;2024-01-15T13:58:58;17.00;57.00
63047;DHT22;62025;39.238;9.126;2024-01-15T14:01:25;17.00;57.50
63047;DHT22;62025;39.238;9.126;2024-01-15T14:03:53;17.00;57.10
63047;DHT22;62025;39.238;9.126;2024-01-15T14:06:19;17.00;57.00
63047;DHT22;62025;39.238;9.126;2024-01-15T14:08:45;17.00;57.50
63047;DHT22;62025;39.238;9.126;2024-01-15T14:11:11;17.10;58.20
63047;DHT22;62025;39.238;9.126;2024-01-15T14:13:38;17.00;58.30
63047;DHT22;62025;39.238;9.126;2024-01-15T14:16:04;17.10;58.50
63047;DHT22;62025;39.238;9.126;2024-01-15T14:18:30;17.10;59.00
63047;DHT22;62025;39.238;9.126;2024-01-15T14:20:57;17.10;59.90
63047;DHT22;62025;39.238;9.126;2024-01-15T14:23:23;17.10;60.20
63047;DHT22;62025;39.238;9.126;2024-01-15T14:25:49;17.10;60.50
63047;DHT22;62025;39.238;9.126;2024-01-15T14:28:15;17.00;60.70
63047;DHT22;62025;39.238;9.126;2024-01-15T14:30:41;17.00;61.10
63047;DHT22;62025;39.238;9.126;2024-01-15T14:33:07;17.10;61.20
63047;DHT22;62025;39.238;9.126;2024-01-15T14:35:33;17.10;61.20
63047;DHT22;62025;39.238;9.126;2024-01-15T14:37:59;17.10;61.10
63047;DHT22;62025;39.238;9.126;2024-01-15T14:40:25;17.00;61.00
63047;DHT22;62025;39.238;9.126;2024-01-15T14:42:52;17.00;61.20
63047;DHT22;62025;39.238;9.126;2024-01-15T14:45:18;17.00;61.20
63047;DHT22;62025;39.238;9.126;2024-01-15T14:47:44;17.00;61.30
63047;DHT22;62025;39.238;9.126;2024-01-15T14:50:11;17.00;60.10
63047;DHT22;62025;39.238;9.126;2024-01-15T14:52:38;17.00;59.30
63047;DHT22;62025;39.238;9.126;2024-01-15T14:55:05;17.00;59.70
63047;DHT22;62025;39.238;9.126;2024-01-15T14:57:32;16.90;60.40
63047;DHT22;62025;39.238;9.126;2024-01-15T14:59:58;16.90;61.30
63047;DHT22;62025;39.238;9.126;2024-01-15T15:02:24;17.00;61.60
63047;DHT22;62025;39.238;9.126;2024-01-15T15:04:54;16.90;61.90
63047;DHT22;62025;39.238;9.126;2024-01-15T15:07:22;16.90;61.90
63047;DHT22;62025;39.238;9.126;2024-01-15T15:09:48;16.90;61.90
63047;DHT22;62025;39.238;9.126;2024-01-15T15:12:16;16.80;61.60
63047;DHT22;62025;39.238;9.126;2024-01-15T15:14:43;16.80;61.70
63047;DHT22;62025;39.238;9.126;2024-01-15T15:17:09;16.80;61.90
63047;DHT22;62025;39.238;9.126;2024-01-15T15:19:35;16.90;62.00
63047;DHT22;62025;39.238;9.126;2024-01-15T15:22:01;16.80;62.30
63047;DHT22;62025;39.238;9.126;2024-01-15T15:24:28;16.80;62.50
63047;DHT22;62025;39.238;9.126;2024-01-15T15:26:54;16.80;62.70
63047;DHT22;62025;39.238;9.126;2024-01-15T15:29:20;16.80;62.90
63047;DHT22;62025;39.238;9.126;2024-01-15T15:31:46;16.80;62.80
63047;DHT22;62025;39.238;9.126;2024-01-15T15:34:14;16.70;62.90
63047;DHT22;62025;39.238;9.126;2024-01-15T15:36:41;16.70;63.20
63047;DHT22;62025;39.238;9.126;2024-01-15T15:39:07;16.70;63.40
63047;DHT22;62025;39.238;9.126;2024-01-15T15:41:33;16.60;63.70
63047;DHT22;62025;39.238;9.126;2024-01-15T15:43:59;16.60;64.50
63047;DHT22;62025;39.238;9.126;2024-01-15T15:46:25;16.60;64.90
63047;DHT22;62025;39.238;9.126;2024-01-15T15:48:51;16.60;65.00